createdAt,value
2023-03-20T08:01:48.370Z,92.40
2023-03-20T08:04:19.500Z,92.90
2023-03-20T08:06:47.097Z,93.30
2023-03-20T08:09:14.695Z,92.80
2023-03-20T08:11:42.547Z,92.90
2023-03-20T08:14:09.963Z,92.50
2023-03-20T08:16:37.745Z,93.10
2023-03-20T08:19:06.272Z,93.30
2023-03-20T08:21:33.912Z,92.60
2023-03-20T08:24:01.492Z,91.30
2023-03-20T08:26:28.862Z,91.00
2023-03-20T08:28:56.266Z,91.00
2023-03-20T08:31:23.664Z,91.10
2023-03-20T08:33:52.063Z,91.10
2023-03-20T08:36:20.869Z,91.00
2023-03-20T08:38:50.287Z,91.50
2023-03-20T08:41:19.059Z,91.20
2023-03-20T08:43:47.699Z,91.50
2023-03-20T08:46:15.193Z,91.60
2023-03-20T08:48:42.632Z,91.50
2023-03-20T08:51:10.204Z,91.20
2023-03-20T08:53:37.557Z,91.10
2023-03-20T08:56:05.856Z,91.10
2023-03-20T08:58:33.345Z,90.40
2023-03-20T09:01:10.441Z,90.70
2023-03-20T09:03:38.133Z,90.40
2023-03-20T09:06:09.422Z,90.70
2023-03-20T09:08:36.909Z,89.60
2023-03-20T09:11:06.131Z,90.00
2023-03-20T09:13:33.921Z,90.50
2023-03-20T09:16:01.363Z,88.70
2023-03-20T09:18:28.869Z,88.40
2023-03-20T09:20:56.779Z,87.70
2023-03-20T09:23:24.234Z,87.60
2023-03-20T09:25:51.694Z,86.10
2023-03-20T09:28:19.634Z,87.30
2023-03-20T09:30:47.047Z,85.90
2023-03-20T09:33:15.005Z,85.10
2023-03-20T09:35:43.768Z,87.50
2023-03-20T09:38:12.385Z,86.20
2023-03-20T09:41:02.965Z,87.50
2023-03-20T09:44:20.984Z,84.60
2023-03-20T09:47:44.190Z,84.70
2023-03-20T09:50:54.942Z,85.60
2023-03-20T09:53:41.062Z,85.80
2023-03-20T09:56:25.344Z,82.50
2023-03-20T09:59:06.426Z,85.20
2023-03-20T10:01:55.265Z,85.00
2023-03-20T10:04:28.626Z,82.90
2023-03-20T10:06:56.971Z,81.50
2023-03-20T10:09:32.676Z,80.60
2023-03-20T10:12:49.677Z,79.80
2023-03-20T10:16:01.861Z,79.40
2023-03-20T10:18:32.803Z,81.70
2023-03-20T10:21:31.871Z,79.40
2023-03-20T10:24:15.833Z,78.30
2023-03-20T10:26:43.642Z,78.20
2023-03-20T10:29:53.003Z,81.40
2023-03-20T10:32:36.228Z,78.20
2023-03-20T10:36:04.724Z,78.10
2023-03-20T10:39:33.915Z,80.30
2023-03-20T10:42:10.422Z,79.50
2023-03-20T10:44:53.335Z,75.80
2023-03-20T10:47:25.080Z,76.70
2023-03-20T10:50:06.359Z,74.10
2023-03-20T10:52:40.554Z,75.50
2023-03-20T10:55:27.169Z,77.40
2023-03-20T10:58:26.642Z,77.50
2023-03-20T11:00:57.200Z,77.80
2023-03-20T11:03:29.631Z,78.00
2023-03-20T11:06:23.023Z,78.40
2023-03-20T11:08:53.333Z,77.70
2023-03-20T11:11:30.800Z,77.70
2023-03-20T11:14:09.333Z,78.40
2023-03-20T11:16:38.922Z,78.30
2023-03-20T11:19:11.657Z,77.70
2023-03-20T11:22:23.150Z,78.50
2023-03-20T11:25:02.578Z,78.50
2023-03-20T11:27:36.874Z,80.40
2023-03-20T11:30:08.399Z,78.40
2023-03-20T11:32:47.155Z,78.90
2023-03-20T11:35:26.335Z,74.00
2023-03-20T11:38:14.926Z,74.90
2023-03-20T11:40:42.321Z,76.30
2023-03-20T11:43:27.179Z,73.00
2023-03-20T11:46:01.430Z,74.10
2023-03-20T11:48:46.967Z,73.80
2023-03-20T11:51:21.763Z,74.70
2023-03-20T11:53:48.955Z,75.30
2023-03-20T11:56:26.636Z,74.70
2023-03-20T11:59:14.942Z,74.30
2023-03-20T12:01:53.579Z,70.10
2023-03-20T12:04:41.978Z,70.30
2023-03-20T12:07:35.103Z,73.60
2023-03-20T12:10:12.833Z,71.30
2023-03-20T12:12:54.841Z,68.20
2023-03-20T12:15:42.010Z,69.20
2023-03-20T12:19:01.641Z,69.10
2023-03-20T12:22:21.635Z,64.10
2023-03-20T12:25:52.804Z,63.60
2023-03-20T12:28:46.830Z,64.00
2023-03-20T12:32:03.850Z,62.80
2023-03-20T12:34:44.943Z,60.40
2023-03-20T12:37:13.685Z,61.30
2023-03-20T12:39:59.309Z,59.70
2023-03-20T12:43:02.700Z,58.60
2023-03-20T12:45:48.579Z,61.40
2023-03-20T12:48:38.141Z,61.20
2023-03-20T12:51:41.763Z,59.60
2023-03-20T12:55:21.160Z,60.60
2023-03-20T12:58:41.079Z,62.70
2023-03-20T13:01:27.639Z,61.90
2023-03-20T13:04:45.224Z,63.60
2023-03-20T13:07:25.951Z,62.20
2023-03-20T13:10:24.485Z,62.00
2023-03-20T13:13:13.026Z,61.70
2023-03-20T13:16:20.743Z,62.80
2023-03-20T13:19:49.248Z,60.70
2023-03-20T13:23:08.536Z,61.20
2023-03-20T13:25:53.683Z,62.90
2023-03-20T13:28:54.525Z,59.50
2023-03-20T13:32:02.224Z,60.10
2023-03-20T13:35:14.959Z,59.10
2023-03-20T13:38:07.338Z,59.60
2023-03-20T13:40:44.186Z,56.80
2023-03-20T13:43:49.893Z,56.50
2023-03-20T13:46:26.782Z,56.80
2023-03-20T13:48:58.785Z,56.80
2023-03-20T13:52:01.865Z,56.00
2023-03-20T13:55:11.482Z,55.60
2023-03-20T13:57:57.043Z,53.70
2023-03-20T14:00:46.404Z,54.50
2023-03-20T14:03:37.794Z,54.10
2023-03-20T14:06:47.405Z,52.20
2023-03-20T14:09:38.956Z,52.80
2023-03-20T14:12:13.458Z,50.10
2023-03-20T14:14:55.130Z,50.30
2023-03-20T14:17:30.876Z,50.90
2023-03-20T14:20:10.628Z,52.20
2023-03-20T14:22:44.573Z,51.50
2023-03-20T14:25:21.847Z,54.20
2023-03-20T14:28:27.256Z,51.10
2023-03-20T14:31:34.287Z,53.20
2023-03-20T14:34:12.172Z,53.50
2023-03-20T14:37:02.035Z,54.40
2023-03-20T14:40:15.622Z,55.80
2023-03-20T14:43:03.260Z,54.50
2023-03-20T14:46:03.709Z,53.50
2023-03-20T14:48:47.626Z,54.80
2023-03-20T14:51:41.416Z,51.80
2023-03-20T14:54:31.111Z,52.20
2023-03-20T14:57:26.559Z,52.10
2023-03-20T14:59:55.355Z,49.70
2023-03-20T15:02:36.412Z,51.00
2023-03-20T15:05:04.766Z,50.60
2023-03-20T15:07:39.559Z,50.60
2023-03-20T15:10:08.137Z,51.20
2023-03-20T15:12:37.583Z,49.60
2023-03-20T15:15:27.859Z,50.00
2023-03-20T15:17:55.316Z,50.60
2023-03-20T15:20:31.867Z,48.40
2023-03-20T15:23:02.554Z,47.50
2023-03-20T15:25:47.522Z,47.60
2023-03-20T15:28:26.100Z,49.10
2023-03-20T15:30:59.194Z,49.30
2023-03-20T15:33:45.787Z,47.60
2023-03-20T15:36:28.516Z,48.20
2023-03-20T15:39:27.246Z,49.50
2023-03-20T15:42:09.698Z,47.90
2023-03-20T15:44:41.747Z,47.70
2023-03-20T15:47:22.906Z,49.50
2023-03-20T15:50:00.719Z,48.90
2023-03-20T15:52:42.526Z,49.60
2023-03-20T15:55:20.008Z,50.40
2023-03-20T15:57:50.302Z,49.30
2023-03-20T16:00:34.209Z,49.50
2023-03-20T16:03:07.774Z,50.60
2023-03-20T16:05:36.184Z,51.10
2023-03-20T16:08:30.952Z,51.60
2023-03-20T16:11:19.084Z,51.80
2023-03-20T16:13:49.924Z,50.70
2023-03-20T16:16:24.613Z,52.00
2023-03-20T16:18:52.440Z,51.40
2023-03-20T16:21:32.136Z,50.40
2023-03-20T16:24:01.485Z,52.30
2023-03-20T16:26:29.217Z,51.20
2023-03-20T16:29:02.703Z,52.20
2023-03-20T16:31:35.228Z,50.70
2023-03-20T16:34:18.065Z,51.40
2023-03-20T16:36:56.454Z,51.60
2023-03-20T16:39:30.730Z,52.90
2023-03-20T16:42:23.995Z,51.50
2023-03-20T16:44:58.859Z,51.70
2023-03-20T16:47:38.416Z,50.80
2023-03-20T16:50:22.790Z,51.70
2023-03-20T16:52:58.680Z,51.50
2023-03-20T16:55:35.140Z,53.50
2023-03-20T16:58:07.352Z,53.30
2023-03-20T17:01:04.500Z,52.90
2023-03-20T17:03:49.476Z,54.10
2023-03-20T17:06:20.711Z,54.60
2023-03-20T17:09:13.181Z,53.70
2023-03-20T17:11:50.327Z,54.10
2023-03-20T17:14:20.792Z,55.50
2023-03-20T17:16:48.338Z,55.80
2023-03-20T17:19:19.352Z,54.80
2023-03-20T17:21:47.784Z,56.90
2023-03-20T17:24:17.417Z,55.80
2023-03-20T17:26:57.195Z,55.50
2023-03-20T17:29:24.621Z,56.60
2023-03-20T17:31:52.690Z,56.40
2023-03-20T17:34:20.110Z,57.80
2023-03-20T17:36:48.959Z,57.90
2023-03-20T17:39:21.097Z,57.90
2023-03-20T17:41:48.625Z,56.50
2023-03-20T17:44:16.075Z,56.60
2023-03-20T17:46:57.277Z,58.20
2023-03-20T17:49:27.521Z,57.30
2023-03-20T17:51:56.187Z,58.00
2023-03-20T17:54:23.687Z,58.10
2023-03-20T17:56:51.133Z,59.00
2023-03-20T17:59:18.493Z,59.20
2023-03-20T18:01:46.041Z,59.00
2023-03-20T18:04:13.530Z,59.00
2023-03-20T18:06:40.996Z,59.30
2023-03-20T18:09:13.338Z,59.70
2023-03-20T18:11:41.172Z,59.70
2023-03-20T18:14:08.688Z,58.90
2023-03-20T18:16:36.259Z,59.60
2023-03-20T18:19:03.820Z,60.00
2023-03-20T18:21:31.232Z,60.00
2023-03-20T18:23:58.651Z,60.30
2023-03-20T18:26:27.652Z,60.70
2023-03-20T18:28:56.233Z,60.00
2023-03-20T18:31:23.854Z,60.30
2023-03-20T18:33:53.405Z,60.70
2023-03-20T18:36:24.462Z,60.60
2023-03-20T18:38:52.581Z,61.10
2023-03-20T18:41:20.917Z,61.00
2023-03-20T18:43:48.674Z,61.40
2023-03-20T18:46:26.021Z,60.20
2023-03-20T18:48:54.446Z,60.30
2023-03-20T18:51:21.926Z,61.20
2023-03-20T18:53:49.500Z,61.40
2023-03-20T18:56:25.900Z,61.40
2023-03-20T18:58:54.174Z,62.20
2023-03-20T19:01:22.080Z,63.20
2023-03-20T19:03:50.088Z,64.10
2023-03-20T19:06:23.145Z,64.60
2023-03-20T19:08:52.439Z,65.80
2023-03-20T19:11:21.733Z,65.50
2023-03-20T19:13:53.624Z,66.00
2023-03-20T19:16:26.803Z,65.80
2023-03-20T19:18:58.993Z,66.10
2023-03-20T19:21:27.117Z,65.50
2023-03-20T19:24:03.557Z,66.40
2023-03-20T19:26:34.764Z,67.00
2023-03-20T19:29:09.195Z,67.80
2023-03-20T19:31:37.152Z,67.90
2023-03-20T19:34:05.391Z,68.10
2023-03-20T19:36:37.716Z,68.60
2023-03-20T19:39:12.522Z,68.40
2023-03-20T19:41:39.848Z,67.90
2023-03-20T19:44:07.395Z,68.30
2023-03-20T19:46:42.729Z,68.60
2023-03-20T19:49:30.194Z,68.30
2023-03-20T19:51:58.015Z,67.80
2023-03-20T19:54:25.567Z,68.00
2023-03-20T19:56:52.945Z,67.90
2023-03-20T19:59:21.159Z,67.60
2023-03-20T20:01:48.853Z,67.50
2023-03-20T20:04:16.470Z,66.90
2023-03-20T20:06:47.129Z,66.50
2023-03-20T20:09:15.711Z,67.10
2023-03-20T20:11:44.086Z,67.20
2023-03-20T20:14:14.593Z,68.70
2023-03-20T20:16:43.341Z,69.00
2023-03-20T20:19:11.751Z,69.70
2023-03-20T20:22:17.251Z,68.80
2023-03-20T20:24:27.469Z,70.30
2023-03-20T20:27:15.381Z,70.60
2023-03-20T20:29:50.942Z,70.90
2023-03-20T20:32:23.718Z,70.80
2023-03-20T20:38:27.035Z,71.90
2023-03-20T20:40:30.973Z,72.50
2023-03-20T20:43:01.659Z,71.90
2023-03-20T20:45:32.044Z,71.90
2023-03-20T20:48:01.939Z,71.70
2023-03-20T20:50:33.465Z,71.70
2023-03-20T20:53:00.884Z,71.50
2023-03-20T20:55:28.385Z,72.20
2023-03-20T20:57:56.149Z,73.10
2023-03-20T21:00:41.209Z,73.80
2023-03-20T21:03:13.346Z,74.80
2023-03-20T21:05:42.961Z,74.90
2023-03-20T21:08:12.043Z,75.50
2023-03-20T21:10:40.103Z,75.00
2023-03-20T21:13:08.654Z,76.10
2023-03-20T21:15:36.722Z,74.60
2023-03-20T21:18:04.888Z,74.40
2023-03-20T21:20:32.875Z,74.60
2023-03-20T21:23:00.935Z,74.50
2023-03-20T21:25:40.520Z,75.10
2023-03-20T21:28:26.518Z,74.80
2023-03-20T21:31:20.888Z,75.00
2023-03-20T21:33:41.816Z,74.20
2023-03-20T21:36:10.067Z,74.00
2023-03-20T21:39:05.899Z,74.20
2023-03-20T21:41:24.948Z,74.90
2023-03-20T21:43:52.274Z,74.80
2023-03-20T21:49:54.513Z,75.20
2023-03-20T21:55:21.635Z,75.80
2023-03-20T22:03:22.362Z,76.30
2023-03-20T22:06:50.592Z,75.90
2023-03-20T22:12:22.967Z,75.30
2023-03-20T22:15:11.991Z,76.70
2023-03-20T22:21:03.963Z,76.80
2023-03-20T22:26:28.520Z,77.10
2023-03-20T22:31:55.389Z,77.10
2023-03-20T22:40:26.357Z,78.10
2023-03-20T22:45:15.073Z,78.10
2023-03-20T22:47:42.831Z,78.10
2023-03-20T22:50:10.980Z,78.40
2023-03-20T22:52:48.546Z,78.70
2023-03-20T22:55:17.821Z,78.90
2023-03-20T22:57:59.957Z,79.00
2023-03-20T23:00:33.541Z,78.90
2023-03-20T23:03:33.371Z,79.40
2023-03-20T23:05:50.516Z,79.60
2023-03-20T23:08:18.241Z,79.00
2023-03-20T23:10:50.764Z,79.10
